Terminal Aerodrome Forecast
Issued by NWS Amarillo, TX

Home | Current Version | Previous Version | Text Only | Print | Product List | Glossary On
Versions: 1 2 3 4 5 6 7 8 9 10 11 12 13
955
FTUS44 KAMA 281140
TAFAMA
TAF
KAMA 281140Z 2812/0112 22016KT P6SM SCT120 OVC250
     FM281500 23036G50KT 6SM BLDU OVC150
     FM010100 27020G30KT P6SM SCT300
     FM010500 34015KT P6SM SKC=

USA.gov is the U.S. government's official web portal to all federal, state and local government web resources and services.